• Join FlightAware (Why Join?)
  • Login
  • US Flag 
02:00AM EDT


 

Airport Tracker/Info


-or-


 

Live Flight TrackerFlight Track Log ✈ UAL4543 ✈ 16-Apr-2013 ✈ KEWR - KDSM

Flight Track Log - Related Links

Times and Time Zones

All times are in EDT time to prevent confusion due to time zone crossing. See the UAL4543 flight status page for this flight to view local times or setup timezone preferences in your user account.

Time Position Orientation Groundspeed Altitude Reporting Facility
EDT Latitude Longitude Course Direction KTS MPH feet Rate Location/Type
07:43PM 40.6667 -74.1833 316° Northwest 155 178 800  Level New York TRACON
07:44PM 40.6500 -74.2167 237° Southwest 216 249 2,600 2,640 Climbing New York TRACON
07:45PM 40.7000 -74.2667 323° Northwest 261 300 6,100 3,360 Climbing New York TRACON
07:46PM 40.7667 -74.3000 339° North 231 266 9,400 2,160 Climbing New York TRACON
07:47PM 40.9641 -74.4923 319° Northwest  Level FlightAware Approximate
07:47PM 40.8167 -74.3500 323° Northwest 266 306 10,300  Level New York TRACON
07:48PM 41.0335 -74.5764 316° Northwest  Level FlightAware Approximate
07:48PM 40.8833 -74.4333 317° Northwest 326 375 11,200  Level New York TRACON
07:49PM 40.9500 -74.5000 323° Northwest 337 388 13,000 1,980 Climbing New York TRACON
07:50PM 41.0394 -74.5922 322° Northwest 345 397 15,600 1,260 Climbing New York Center
07:52PM 41.1295 -74.6833 North  Level FlightAware Approximate
07:53PM 41.1919 -74.8242 301° West 277 319 18,500  Level New York Center
07:54PM 41.2303 -74.9203 298° West 309 356 19,100 1,500 Climbing New York Center
07:55PM 41.2786 -75.0253 302° West 328 377 21,500 2,160 Climbing New York Center
07:56PM 41.3228 -75.1275 300° West 333 383 23,500 1,620 Climbing New York Center
07:57PM 41.3669 -75.2272 301° West 327 376 24,800 840 Climbing New York Center
07:58PM 41.4150 -75.3381 300° West 327 376 25,300 480 Climbing New York Center
07:59PM 41.4495 -75.4321 301° West  Level FlightAware Approximate
08:00PM 41.4683 -75.4731 288° West  Level FlightAware Approximate
08:00PM 41.5050 -75.5853 288° West 362 417 26,400  Level New York Center
08:02PM 41.5333 -75.7291 270° West  Level FlightAware Approximate
08:02PM 41.5778 -75.8400 270° West 368 423 28,400  Level New York Center
08:03PM 41.6158 -75.9678 292° West 368 423 29,600 1,260 Climbing New York Center
08:04PM 41.6481 -76.0925 289° West 373 429 31,000 1,560 Climbing New York Center
08:05PM 41.6858 -76.2233 291° West 362 417 32,800 1,620 Climbing New York Center
08:06PM 41.7181 -76.3372 291° West 346 398 34,300 1,260 Climbing New York Center
08:07PM 41.7503 -76.4483 291° West 334 384 35,300 780 Climbing New York Center
08:08PM 41.7747 -76.5450 289° West 329 379 36,000 240 Climbing New York Center
08:10PM 41.8361 -76.7619 291° West 347 399 36,000  Level Cleveland Center
08:11PM 41.8714 -76.8881 291° West 352 405 36,000  Level Cleveland Center
08:12PM 41.9067 -77.0172 290° West 363 418 36,000  Level Cleveland Center
08:13PM 41.9397 -77.1439 289° West 363 418 36,000  Level Cleveland Center
08:14PM 41.9772 -77.2786 291° West 368 423 36,000  Level Cleveland Center
08:15PM 42.0119 -77.4083 290° West 368 423 36,000  Level Cleveland Center
08:16PM 42.0400 -77.5133 290° West 368 423 36,000  Level Cleveland Center
08:17PM 42.0747 -77.6514 289° West 368 423 36,000  Level Cleveland Center
08:18PM 42.1094 -77.7814 290° West 363 418 36,000  Level Cleveland Center
08:19PM 42.1436 -77.9086 290° West 363 418 36,000  Level Cleveland Center
08:20PM 42.1736 -78.0336 288° West 358 412 36,000  Level Cleveland Center
08:21PM 42.2097 -78.1611 291° West 358 412 36,000  Level Cleveland Center
08:22PM 42.2414 -78.2889 289° West 358 412 36,000  Level Cleveland Center
08:23PM 42.2731 -78.4139 289° West 358 412 36,000  Level Cleveland Center
08:24PM 42.3067 -78.5364 290° West 358 412 36,000  Level Cleveland Center
08:25PM 42.3400 -78.6647 289° West 358 412 36,000  Level Cleveland Center
08:26PM 42.3692 -78.7903 287° West 358 412 36,000  Level Cleveland Center
08:27PM 42.4044 -78.9269 289° West 358 412 36,000  Level Cleveland Center
08:28PM 42.4356 -79.0500 289° West 358 412 36,000  Level Cleveland Center
08:29PM 42.4639 -79.1619 289° West 358 412 36,000  Level Cleveland Center
08:30PM 42.4925 -79.2908 287° West 358 412 36,000  Level Cleveland Center
08:31PM 42.5003 -79.4200 275° West 353 406 36,000  Level Cleveland Center
08:32PM 42.5036 -79.5467 272° West 353 406 36,000  Level Cleveland Center
08:33PM 42.5131 -79.6789 276° West 347 399 36,000  Level Cleveland Center
08:34PM 42.5200 -79.8056 274° West 347 399 36,000  Level Cleveland Center
08:35PM 42.5250 -79.9353 273° West 347 399 36,000  Level Cleveland Center
08:36PM 42.5278 -80.0675 272° West 347 399 36,000  Level Cleveland Center
08:37PM 42.5325 -80.1972 273° West 347 399 36,000  Level Cleveland Center
08:38PM 42.5392 -80.3297 274° West 347 399 36,000  Level Cleveland Center
08:39PM 42.5436 -80.4592 273° West 347 399 36,000  Level Cleveland Center
08:40PM 42.5478 -80.5917 272° West 347 399 36,000  Level Cleveland Center
08:41PM 42.5561 -80.7353 275° West 347 399 36,000  Level Cleveland Center
08:42PM 42.5578 -80.8708 271° West 348 400 36,000  Level Cleveland Center
08:43PM 42.5658 -81.0033 275° West 353 406 36,000  Level Cleveland Center
08:44PM 42.5694 -81.1386 272° West 360 414 36,000  Level Cleveland Center
08:45PM 42.5728 -81.2711 272° West 360 414 36,000  Level Cleveland Center
08:46PM 42.5781 -81.4092 273° West 366 421 36,000  Level Cleveland Center
08:47PM 42.5981 -81.5394 282° West 360 414 36,000  Level Cleveland Center
08:48PM 42.6217 -81.6750 283° West 366 421 36,000  Level Cleveland Center
08:49PM 42.6456 -81.8053 284° West 366 421 36,000  Level Cleveland Center
08:50PM 42.6689 -81.9414 283° West 366 421 36,000  Level Cleveland Center
08:51PM 42.6903 -82.0747 282° West 366 421 36,000  Level Cleveland Center
08:52PM 42.7133 -82.2081 283° West 366 421 36,000  Level Cleveland Center
08:53PM 42.7364 -82.3414 283° West 371 427 36,000  Level Cleveland Center
08:54PM 42.7594 -82.4750 283° West 371 427 36,000  Level Cleveland Center
08:55PM 42.7819 -82.6114 283° West 371 427 36,000  Level Cleveland Center
08:56PM 42.8028 -82.7394 283° West 365 420 36,000  Level Cleveland Center
08:57PM 42.8272 -82.8733 284° West 365 420 36,000  Level Cleveland Center
08:58PM 42.8472 -83.0072 282° West 360 414 36,000  Level Cleveland Center
08:59PM 42.8694 -83.1414 283° West 360 414 36,000  Level Cleveland Center
09:00PM 42.8894 -83.2753 282° West 360 414 36,000  Level Cleveland Center
09:01PM 42.9131 -83.4125 283° West 360 414 36,000  Level Cleveland Center
09:02PM 42.9331 -83.5381 282° West 369 425 36,000  Level Cleveland Center
09:03PM 42.9564 -83.6811 283° West 380 437 36,000  Level Cleveland Center
09:04PM 42.9733 -83.8211 279° West 380 437 36,000  Level Cleveland Center
09:05PM 42.9861 -83.9608 277° West 380 437 36,000  Level Cleveland Center
09:06PM 42.9881 -84.1028 271° West 374 430 36,000  Level Cleveland Center
09:07PM 42.9794 -84.2414 265° West 369 425 36,000  Level Cleveland Center
09:09PM 42.9672 -84.4719 266° West 369 425 36,000  Level Chicago Center
09:10PM 42.9575 -84.6117 265° West 369 425 36,000  Level Chicago Center
09:11PM 42.9494 -84.7519 266° West 373 429 36,000  Level Chicago Center
09:12PM 42.9378 -84.9206 265° West 374 430 36,000  Level Chicago Center
09:13PM 42.9278 -85.0617 265° West 374 430 36,000  Level Chicago Center
09:14PM 42.9189 -85.2031 265° West 374 430 36,000  Level Chicago Center
09:15PM 42.9083 -85.3444 264° West 375 432 36,000  Level Chicago Center
09:16PM 42.8981 -85.4858 264° West 375 432 36,000  Level Chicago Center
09:17PM 42.8881 -85.6275 265° West 375 432 36,000  Level Chicago Center
09:18PM 42.8772 -85.7697 264° West 375 432 36,000  Level Chicago Center
09:19PM 42.8667 -85.9139 264° West 377 434 36,000  Level Chicago Center
09:20PM 42.8558 -86.0575 264° West 376 433 36,000  Level Chicago Center
09:21PM 42.8431 -86.2286 264° West 375 432 36,000  Level Chicago Center
09:22PM 42.8317 -86.3714 264° West 377 434 36,000  Level Chicago Center
09:23PM 42.8203 -86.5133 264° West 377 434 36,000  Level Chicago Center
09:24PM 42.8083 -86.6558 264° West 379 436 36,000  Level Chicago Center
09:25PM 42.7967 -86.7989 264° West 381 438 36,000  Level Chicago Center
09:26PM 42.7833 -86.9394 263° West 378 435 36,000  Level Chicago Center
09:27PM 42.7722 -87.0817 264° West 377 434 36,000  Level Chicago Center
09:28PM 42.7597 -87.2236 263° West 377 434 36,000  Level Chicago Center
09:29PM 42.7453 -87.3931 263° West 374 430 36,000  Level Chicago Center
09:30PM 42.7319 -87.5269 262° West 376 433 36,000  Level Chicago Center
09:31PM 42.7203 -87.6675 264° West 375 432 36,000  Level Chicago Center
09:32PM 42.7078 -87.8092 263° West 376 433 36,000  Level Chicago Center
09:33PM 42.6944 -87.9489 263° West 373 429 36,000  Level Chicago Center
09:34PM 42.6781 -88.1128 262° West 372 428 36,000  Level Chicago Center
09:35PM 42.6658 -88.2517 263° West 369 425 36,000  Level Chicago Center
09:36PM 42.6511 -88.3939 262° West 376 433 36,000  Level Chicago Center
09:37PM 42.6375 -88.5364 263° West 379 436 36,000  Level Chicago Center
09:38PM 42.6233 -88.6789 262° West 379 436 36,000  Level Chicago Center
09:39PM 42.6089 -88.8217 262° West 379 436 36,000  Level Chicago Center
09:40PM 42.5953 -88.9631 263° West 377 434 36,000  Level Chicago Center
09:42PM 42.5803 -89.1033 262° West 375 432 36,000  Level Chicago Center
09:43PM 42.5661 -89.2408 262° West 370 426 36,000  Level Chicago Center
09:44PM 42.5492 -89.3997 262° West 367 422 36,000  Level Chicago Center
09:45PM 42.5336 -89.5367 261° West 367 422 36,000  Level Chicago Center
09:46PM 42.5139 -89.6725 259° West 369 425 36,000 -120 Level Chicago Center
09:47PM 42.4839 -89.8031 253° West 364 419 35,800 -840 Descending Chicago Center
09:48PM 42.4564 -89.9261 253° West 367 422 34,400 -1,320 Descending Chicago Center
09:49PM 42.4253 -90.0600 253° West 374 430 33,100 -720 Descending Chicago Center
09:50PM 42.3944 -90.1928 253° West 374 430 33,000 -60 Descending Chicago Center
09:51PM 42.3569 -90.3528 252° West 375 432 33,000  Level Chicago Center
09:52PM 42.3275 -90.4897 254° West 381 438 33,000  Level Chicago Center
09:53PM 42.2950 -90.6250 252° West 382 440 33,000  Level Chicago Center
09:54PM 42.2631 -90.7611 252° West 382 440 33,000  Level Chicago Center
09:55PM 42.2311 -90.8950 252° West 378 435 33,000 -300 Level Chicago Center
09:56PM 42.1986 -91.0311 252° West 381 438 32,500 -1,020 Descending Chicago Center
09:57PM 42.1661 -91.1644 252° West 377 434 31,000 -1,620 Descending Chicago Center
09:58PM 42.1339 -91.3028 253° West 385 443 29,200 -2,220 Descending Chicago Center
09:59PM 42.0931 -91.4711 252° West 393 452 26,400 -2,400 Descending Chicago Center
10:00PM 42.0589 -91.6092 252° West 391 450 24,300 -1,200 Descending Chicago Center
10:01PM 42.0261 -91.7436 252° West 385 443 24,000 -480 Descending Chicago Center
10:02PM 41.9933 -91.8756 252° West 377 434 23,400 -1,260 Descending Chicago Center
10:03PM 41.9603 -92.0089 252° West 375 432 21,500 -1,920 Descending Chicago Center
10:04PM 41.9289 -92.1367 252° West 368 423 19,500 -2,040 Descending Chicago Center
10:05PM 41.8908 -92.2883 251° West 360 414 17,400 -2,040 Descending Chicago Center
10:06PM 41.8606 -92.4114 252° West 352 405 15,400 -1,980 Descending Chicago Center
10:07PM 41.8300 -92.5306 251° West 344 396 13,400 -2,040 Descending Chicago Center
10:08PM 41.8019 -92.6375 251° West 333 383 11,700 -1,320 Descending Minneapolis Center
10:09PM 41.7719 -92.7544 251° West 332 382 11,000 -600 Descending Minneapolis Center
10:10PM 41.7433 -92.8667 251° West 320 368 10,500 -960 Descending Minneapolis Center
10:11PM 41.7203 -92.9606 252° West 270 311 9,100 -1,680 Descending Minneapolis Center
10:11PM 41.7164 -92.9781 253° West 269 310 8,300 -1,620 Descending Minneapolis Center
10:12PM 41.6953 -93.0511 249° West 260 299 7,200 -1,320 Descending Minneapolis Center
10:13PM 41.6567 -93.1658 246° West 274 315 5,800 -1,320 Descending Minneapolis Center
10:14PM 41.6242 -93.2661 247° West 278 320 4,500 -1,080 Descending Minneapolis Center
10:15PM 41.5875 -93.3597 242° Southwest 278 320 3,700 -780 Descending Minneapolis Center
10:16PM 41.5553 -93.4500 245° Southwest 272 313 3,000 -420 Descending Minneapolis Center
10:17PM 41.5233 -93.5236 240° Southwest 247 284 2,900  Descending Minneapolis Center
10:18PM 41.4806 -93.6033 234° Southwest 248 285 3,100  Climbing Minneapolis Center
10:19PM 41.4472 -93.6669 235° Southwest 232 267 2,900 -120 Descending Minneapolis Center
10:20PM 41.4208 -93.7222 238° Southwest 209 241 2,900  Level Minneapolis Center
10:21PM 41.4567 -93.7689 316° Northwest 185 213 2,900 -300 Level Minneapolis Center
10:22PM 41.4850 -93.7497 27° Northeast 135 155 2,400 -480 Descending Minneapolis Center
10:22PM 41.4850 -93.7467 90° East 129 148 2,400 -600 Level Minneapolis Center
10:23PM 41.5061 -93.7144 49° Northeast 124 143 1,800 -600 Descending Minneapolis Center
10:23PM 41.5008 -93.7183 209° Southwest 124 143 1,800  Level Minneapolis Center